sensor_id;sensor_type;location;lat;lon;timestamp;pressure;altitude;pressure_sealevel;temperature;humidity
11440;BME280;5776;51.814;4.510;2024-01-11T00:00:33;103329.63;;;-0.38;100.00
11440;BME280;5776;51.814;4.510;2024-01-11T00:02:59;103329.09;;;-0.41;100.00
11440;BME280;5776;51.814;4.510;2024-01-11T00:05:26;103335.13;;;-0.39;100.00
11440;BME280;5776;51.814;4.510;2024-01-11T00:07:52;103326.59;;;-0.43;100.00
11440;BME280;5776;51.814;4.510;2024-01-11T00:10:18;103336.28;;;-0.42;100.00
11440;BME280;5776;51.814;4.510;2024-01-11T00:12:44;103329.25;;;-0.43;100.00
11440;BME280;5776;51.814;4.510;2024-01-11T00:15:10;103332.09;;;-0.45;100.00
11440;BME280;5776;51.814;4.510;2024-01-11T00:17:36;103339.28;;;-0.45;100.00
11440;BME280;5776;51.814;4.510;2024-01-11T00:20:02;103333.25;;;-0.47;100.00
11440;BME280;5776;51.814;4.510;2024-01-11T00:22:28;103330.41;;;-0.46;100.00
11440;BME280;5776;51.814;4.510;2024-01-11T00:24:54;103335.59;;;-0.44;100.00
11440;BME280;5776;51.814;4.510;2024-01-11T00:27:20;103334.91;;;-0.46;100.00
11440;BME280;5776;51.814;4.510;2024-01-11T00:29:47;103333.38;;;-0.49;100.00
11440;BME280;5776;51.814;4.510;2024-01-11T00:32:13;103338.88;;;-0.50;100.00
11440;BME280;5776;51.814;4.510;2024-01-11T00:34:39;103330.47;;;-0.55;100.00
11440;BME280;5776;51.814;4.510;2024-01-11T00:37:05;103339.19;;;-0.53;100.00
11440;BME280;5776;51.814;4.510;2024-01-11T00:39:31;103338.47;;;-0.55;100.00
11440;BME280;5776;51.814;4.510;2024-01-11T00:41:58;103329.50;;;-0.54;100.00
11440;BME280;5776;51.814;4.510;2024-01-11T00:44:24;103334.84;;;-0.54;100.00
11440;BME280;5776;51.814;4.510;2024-01-11T00:46:50;103334.97;;;-0.56;100.00
11440;BME280;5776;51.814;4.510;2024-01-11T00:49:16;103339.09;;;-0.61;100.00
11440;BME280;5776;51.814;4.510;2024-01-11T00:51:41;103337.13;;;-0.59;100.00
11440;BME280;5776;51.814;4.510;2024-01-11T00:54:07;103337.81;;;-0.57;100.00
11440;BME280;5776;51.814;4.510;2024-01-11T00:56:33;103339.81;;;-0.59;100.00
11440;BME280;5776;51.814;4.510;2024-01-11T00:58:59;103339.81;;;-0.59;100.00
11440;BME280;5776;51.814;4.510;2024-01-11T01:01:25;103338.97;;;-0.60;100.00
11440;BME280;5776;51.814;4.510;2024-01-11T01:03:50;103337.44;;;-0.62;100.00
11440;BME280;5776;51.814;4.510;2024-01-11T01:06:16;103332.09;;;-0.62;100.00
11440;BME280;5776;51.814;4.510;2024-01-11T01:08:44;103338.41;;;-0.63;100.00
11440;BME280;5776;51.814;4.510;2024-01-11T01:11:10;103344.44;;;-0.61;100.00
11440;BME280;5776;51.814;4.510;2024-01-11T01:13:35;103338.41;;;-0.63;100.00
11440;BME280;5776;51.814;4.510;2024-01-11T01:16:01;103349.41;;;-0.67;100.00
11440;BME280;5776;51.814;4.510;2024-01-11T01:18:27;103340.38;;;-0.66;100.00
11440;BME280;5776;51.814;4.510;2024-01-11T01:20:53;103343.22;;;-0.67;100.00
11440;BME280;5776;51.814;4.510;2024-01-11T01:23:19;103349.41;;;-0.67;100.00
11440;BME280;5776;51.814;4.510;2024-01-11T01:25:44;103352.06;;;-0.67;100.00
11440;BME280;5776;51.814;4.510;2024-01-11T01:28:10;103349.41;;;-0.67;100.00
11440;BME280;5776;51.814;4.510;2024-01-11T01:30:36;103351.38;;;-0.69;100.00
11440;BME280;5776;51.814;4.510;2024-01-11T01:33:02;103351.69;;;-0.72;100.00
11440;BME280;5776;51.814;4.510;2024-01-11T01:35:28;103361.38;;;-0.71;100.00
11440;BME280;5776;51.814;4.510;2024-01-11T01:37:53;103354.06;;;-0.69;100.00
11440;BME280;5776;51.814;4.510;2024-01-11T01:40:19;103357.56;;;-0.68;100.00
11440;BME280;5776;51.814;4.510;2024-01-11T01:42:48;103358.56;;;-0.69;100.00
11440;BME280;5776;51.814;4.510;2024-01-11T01:45:15;103372.72;;;-0.69;100.00
11440;BME280;5776;51.814;4.510;2024-01-11T01:47:42;103374.56;;;-0.69;100.00
11440;BME280;5776;51.814;4.510;2024-01-11T01:50:11;103373.72;;;-0.70;100.00
11440;BME280;5776;51.814;4.510;2024-01-11T01:52:37;103379.22;;;-0.71;100.00
11440;BME280;5776;51.814;4.510;2024-01-11T01:55:06;103389.06;;;-0.72;100.00
11440;BME280;5776;51.814;4.510;2024-01-11T01:57:34;103380.22;;;-0.72;100.00
11440;BME280;5776;51.814;4.510;2024-01-11T02:00:01;103382.88;;;-0.72;100.00
11440;BME280;5776;51.814;4.510;2024-01-11T02:02:30;103374.31;;;-0.76;100.00
11440;BME280;5776;51.814;4.510;2024-01-11T02:04:57;103391.34;;;-0.77;100.00
11440;BME280;5776;51.814;4.510;2024-01-11T02:07:23;103380.66;;;-0.77;100.00
11440;BME280;5776;51.814;4.510;2024-01-11T02:09:50;103389.63;;;-0.78;100.00
11440;BME280;5776;51.814;4.510;2024-01-11T02:12:17;103391.34;;;-0.77;100.00
11440;BME280;5776;51.814;4.510;2024-01-11T02:14:44;103386.84;;;-0.76;100.00
11440;BME280;5776;51.814;4.510;2024-01-11T02:17:11;103383.16;;;-0.75;100.00
11440;BME280;5776;51.814;4.510;2024-01-11T02:19:37;103387.66;;;-0.76;100.00
11440;BME280;5776;51.814;4.510;2024-01-11T02:22:10;103385.31;;;-0.79;100.00
11440;BME280;5776;51.814;4.510;2024-01-11T02:24:38;103388.81;;;-0.78;100.00
11440;BME280;5776;51.814;4.510;2024-01-11T02:27:05;103394.97;;;-0.78;100.00
11440;BME280;5776;51.814;4.510;2024-01-11T02:29:31;103393.31;;;-0.79;100.00
11440;BME280;5776;51.814;4.510;2024-01-11T02:31:57;103388.97;;;-0.80;100.00
11440;BME280;5776;51.814;4.510;2024-01-11T02:34:24;103394.44;;;-0.81;100.00
11440;BME280;5776;51.814;4.510;2024-01-11T02:36:52;103395.28;;;-0.81;100.00
11440;BME280;5776;51.814;4.510;2024-01-11T02:39:19;103389.94;;;-0.81;100.00
11440;BME280;5776;51.814;4.510;2024-01-11T02:41:45;103390.25;;;-0.84;100.00
11440;BME280;5776;51.814;4.510;2024-01-11T02:44:13;103383.25;;;-0.85;100.00
11440;BME280;5776;51.814;4.510;2024-01-11T02:46:38;103390.38;;;-0.85;100.00
11440;BME280;5776;51.814;4.510;2024-01-11T02:49:05;103394.19;;;-0.88;100.00
11440;BME280;5776;51.814;4.510;2024-01-11T02:51:31;103394.19;;;-0.88;100.00
11440;BME280;5776;51.814;4.510;2024-01-11T02:53:58;103394.50;;;-0.91;100.00
11440;BME280;5776;51.814;4.510;2024-01-11T02:56:24;103397.34;;;-0.93;100.00
11440;BME280;5776;51.814;4.510;2024-01-11T02:58:50;103404.47;;;-0.93;100.00
11440;BME280;5776;51.814;4.510;2024-01-11T03:01:16;103401.16;;;-0.95;100.00
11440;BME280;5776;51.814;4.510;2024-01-11T03:03:42;103401.81;;;-0.93;100.00
11440;BME280;5776;51.814;4.510;2024-01-11T03:06:08;103399.31;;;-0.95;100.00
11440;BME280;5776;51.814;4.510;2024-01-11T03:08:33;103403.13;;;-0.97;100.00
11440;BME280;5776;51.814;4.510;2024-01-11T03:11:00;103398.75;;;-0.98;100.00
11440;BME280;5776;51.814;4.510;2024-01-11T03:13:26;103398.47;;;-0.95;100.00
11440;BME280;5776;51.814;4.510;2024-01-11T03:15:53;103392.44;;;-0.97;100.00
11440;BME280;5776;51.814;4.510;2024-01-11T03:18:19;103397.78;;;-0.97;100.00
11440;BME280;5776;51.814;4.510;2024-01-11T03:20:45;103400.72;;;-1.00;100.00
11440;BME280;5776;51.814;4.510;2024-01-11T03:23:11;103404.09;;;-0.98;100.00
11440;BME280;5776;51.814;4.510;2024-01-11T03:25:37;103404.25;;;-1.00;100.00
11440;BME280;5776;51.814;4.510;2024-01-11T03:28:03;103399.06;;;-1.01;100.00
11440;BME280;5776;51.814;4.510;2024-01-11T03:30:29;103398.53;;;-1.05;100.00
11440;BME280;5776;51.814;4.510;2024-01-11T03:32:55;103395.00;;;-1.05;100.00
11440;BME280;5776;51.814;4.510;2024-01-11T03:35:21;103390.66;;;-1.06;100.00
11440;BME280;5776;51.814;4.510;2024-01-11T03:37:47;103394.03;;;-1.04;100.00
11440;BME280;5776;51.814;4.510;2024-01-11T03:40:13;103392.78;;;-1.10;100.00
11440;BME280;5776;51.814;4.510;2024-01-11T03:42:41;103376.63;;;-1.09;100.00
11440;BME280;5776;51.814;4.510;2024-01-11T03:45:07;103380.59;;;-1.13;100.00
11440;BME280;5776;51.814;4.510;2024-01-11T03:47:33;103379.91;;;-1.15;100.00
11440;BME280;5776;51.814;4.510;2024-01-11T03:49:59;103375.53;;;-1.16;100.00
11440;BME280;5776;51.814;4.510;2024-01-11T03:52:25;103381.56;;;-1.14;100.00
11440;BME280;5776;51.814;4.510;2024-01-11T03:54:51;103391.41;;;-1.14;100.00
11440;BME280;5776;51.814;4.510;2024-01-11T03:57:17;103386.50;;;-1.19;100.00
11440;BME280;5776;51.814;4.510;2024-01-11T03:59:43;103381.72;;;-1.15;100.00
11440;BME280;5776;51.814;4.510;2024-01-11T04:02:09;103384.22;;;-1.14;100.00
11440;BME280;5776;51.814;4.510;2024-01-11T04:04:35;103385.38;;;-1.16;100.00
11440;BME280;5776;51.814;4.510;2024-01-11T04:07:01;103391.00;;;-1.19;100.00
11440;BME280;5776;51.814;4.510;2024-01-11T04:09:27;103388.34;;;-1.19;100.00
11440;BME280;5776;51.814;4.510;2024-01-11T04:11:53;103407.53;;;-1.16;100.00
11440;BME280;5776;51.814;4.510;2024-01-11T04:14:18;103408.41;;;-1.15;100.00
11440;BME280;5776;51.814;4.510;2024-01-11T04:16:44;103404.34;;;-1.19;100.00
11440;BME280;5776;51.814;4.510;2024-01-11T04:19:10;103411.19;;;-1.17;100.00
11440;BME280;5776;51.814;4.510;2024-01-11T04:21:37;103417.53;;;-1.18;100.00
11440;BME280;5776;51.814;4.510;2024-01-11T04:24:06;103416.97;;;-1.21;100.00
11440;BME280;5776;51.814;4.510;2024-01-11T04:26:35;103414.00;;;-1.18;100.00
11440;BME280;5776;51.814;4.510;2024-01-11T04:29:03;103415.13;;;-1.21;100.00
11440;BME280;5776;51.814;4.510;2024-01-11T04:31:28;103421.34;;;-1.20;100.00
11440;BME280;5776;51.814;4.510;2024-01-11T04:33:54;103425.13;;;-1.23;100.00
11440;BME280;5776;51.814;4.510;2024-01-11T04:36:20;103423.44;;;-1.24;100.00
11440;BME280;5776;51.814;4.510;2024-01-11T04:38:47;103424.44;;;-1.25;100.00
11440;BME280;5776;51.814;4.510;2024-01-11T04:41:14;103422.59;;;-1.24;100.00
11440;BME280;5776;51.814;4.510;2024-01-11T04:43:44;103419.09;;;-1.25;100.00
11440;BME280;5776;51.814;4.510;2024-01-11T04:46:22;103426.09;;;-1.24;100.00
11440;BME280;5776;51.814;4.510;2024-01-11T04:48:49;103433.41;;;-1.26;100.00
11440;BME280;5776;51.814;4.510;2024-01-11T04:51:16;103440.72;;;-1.28;100.00
11440;BME280;5776;51.814;4.510;2024-01-11T04:53:44;103433.00;;;-1.31;100.00
11440;BME280;5776;51.814;4.510;2024-01-11T04:56:11;103435.66;;;-1.31;100.00
11440;BME280;5776;51.814;4.510;2024-01-11T04:58:40;103434.00;;;-1.32;100.00
11440;BME280;5776;51.814;4.510;2024-01-11T05:01:07;103438.63;;;-1.34;100.00
11440;BME280;5776;51.814;4.510;2024-01-11T05:03:36;103435.44;;;-1.38;100.00
11440;BME280;5776;51.814;4.510;2024-01-11T05:06:02;103442.72;;;-1.40;100.00
11440;BME280;5776;51.814;4.510;2024-01-11T05:08:29;103449.44;;;-1.36;100.00
11440;BME280;5776;51.814;4.510;2024-01-11T05:10:55;103449.72;;;-1.39;100.00
11440;BME280;5776;51.814;4.510;2024-01-11T05:13:20;103451.13;;;-1.35;100.00
11440;BME280;5776;51.814;4.510;2024-01-11T05:15:46;103458.84;;;-1.41;100.00
11440;BME280;5776;51.814;4.510;2024-01-11T05:18:13;103462.09;;;-1.38;100.00
11440;BME280;5776;51.814;4.510;2024-01-11T05:20:40;103460.56;;;-1.40;100.00
11440;BME280;5776;51.814;4.510;2024-01-11T05:23:06;103463.50;;;-1.43;100.00
11440;BME280;5776;51.814;4.510;2024-01-11T05:25:32;103464.91;;;-1.39;100.00
11440;BME280;5776;51.814;4.510;2024-01-11T05:28:02;103475.56;;;-1.39;100.00
11440;BME280;5776;51.814;4.510;2024-01-11T05:30:28;103473.88;;;-1.40;100.00
11440;BME280;5776;51.814;4.510;2024-01-11T05:32:54;103472.47;;;-1.44;100.00
11440;BME280;5776;51.814;4.510;2024-01-11T05:35:20;103475.00;;;-1.43;100.00
11440;BME280;5776;51.814;4.510;2024-01-11T05:37:46;103468.56;;;-1.40;100.00
11440;BME280;5776;51.814;4.510;2024-01-11T05:40:12;103475.69;;;-1.41;100.00
11440;BME280;5776;51.814;4.510;2024-01-11T05:42:39;103471.66;;;-1.45;100.00
11440;BME280;5776;51.814;4.510;2024-01-11T05:45:05;103468.56;;;-1.40;100.00
11440;BME280;5776;51.814;4.510;2024-01-11T05:47:31;103460.97;;;-1.45;100.00
11440;BME280;5776;51.814;4.510;2024-01-11T05:49:57;103458.44;;;-1.46;100.00
11440;BME280;5776;51.814;4.510;2024-01-11T05:52:23;103460.28;;;-1.47;100.00
11440;BME280;5776;51.814;4.510;2024-01-11T05:54:49;103465.63;;;-1.47;100.00
11440;BME280;5776;51.814;4.510;2024-01-11T05:57:14;103467.44;;;-1.47;100.00
11440;BME280;5776;51.814;4.510;2024-01-11T05:59:46;103476.28;;;-1.47;100.00
11440;BME280;5776;51.814;4.510;2024-01-11T06:02:12;103479.38;;;-1.52;100.00
11440;BME280;5776;51.814;4.510;2024-01-11T06:04:39;103474.75;;;-1.49;100.00
11440;BME280;5776;51.814;4.510;2024-01-11T06:07:05;103478.25;;;-1.49;100.00
11440;BME280;5776;51.814;4.510;2024-01-11T06:09:31;103482.03;;;-1.52;100.00
11440;BME280;5776;51.814;4.510;2024-01-11T06:11:57;103480.19;;;-1.51;100.00
11440;BME280;5776;51.814;4.510;2024-01-11T06:14:23;103485.81;;;-1.44;100.00
11440;BME280;5776;51.814;4.510;2024-01-11T06:16:49;103485.09;;;-1.46;100.00
11440;BME280;5776;51.814;4.510;2024-01-11T06:19:14;103490.31;;;-1.45;100.00
11440;BME280;5776;51.814;4.510;2024-01-11T06:21:41;103479.78;;;-1.46;100.00
11440;BME280;5776;51.814;4.510;2024-01-11T06:24:07;103473.31;;;-1.44;100.00
11440;BME280;5776;51.814;4.510;2024-01-11T06:26:33;103473.59;;;-1.47;100.00
11440;BME280;5776;51.814;4.510;2024-01-11T06:28:59;103475.16;;;-1.44;100.00
11440;BME280;5776;51.814;4.510;2024-01-11T06:31:25;103492.81;;;-1.43;100.00
11440;BME280;5776;51.814;4.510;2024-01-11T06:33:52;103493.53;;;-1.41;100.00
11440;BME280;5776;51.814;4.510;2024-01-11T06:36:18;103489.59;;;-1.47;100.00
11440;BME280;5776;51.814;4.510;2024-01-11T06:38:44;103476.16;;;-1.45;100.00
11440;BME280;5776;51.814;4.510;2024-01-11T06:41:09;103471.06;;;-1.48;100.00
11440;BME280;5776;51.814;4.510;2024-01-11T06:43:35;103480.19;;;-1.51;100.00
11440;BME280;5776;51.814;4.510;2024-01-11T06:46:05;103478.09;;;-1.47;100.00
11440;BME280;5776;51.814;4.510;2024-01-11T06:48:31;103484.56;;;-1.50;100.00
11440;BME280;5776;51.814;4.510;2024-01-11T06:50:57;103483.44;;;-1.47;100.00
11440;BME280;5776;51.814;4.510;2024-01-11T06:53:23;103492.41;;;-1.48;100.00
11440;BME280;5776;51.814;4.510;2024-01-11T06:55:49;103498.84;;;-1.41;100.00
11440;BME280;5776;51.814;4.510;2024-01-11T06:58:17;103496.47;;;-1.44;100.00
11440;BME280;5776;51.814;4.510;2024-01-11T07:00:46;103508.53;;;-1.40;100.00
11440;BME280;5776;51.814;4.510;2024-01-11T07:03:12;103525.38;;;-1.40;100.00
11440;BME280;5776;51.814;4.510;2024-01-11T07:05:38;103513.72;;;-1.39;100.00
11440;BME280;5776;51.814;4.510;2024-01-11T07:08:04;103523.97;;;-1.44;100.00
11440;BME280;5776;51.814;4.510;2024-01-11T07:10:30;103527.47;;;-1.43;100.00
11440;BME280;5776;51.814;4.510;2024-01-11T07:12:56;103537.00;;;-1.41;100.00
11440;BME280;5776;51.814;4.510;2024-01-11T07:15:21;103542.50;;;-1.42;100.00
11440;BME280;5776;51.814;4.510;2024-01-11T07:17:47;103548.13;;;-1.45;100.00
11440;BME280;5776;51.814;4.510;2024-01-11T07:20:13;103539.84;;;-1.42;100.00
11440;BME280;5776;51.814;4.510;2024-01-11T07:22:41;103539.25;;;-1.46;100.00
11440;BME280;5776;51.814;4.510;2024-01-11T07:25:07;103547.41;;;-1.47;100.00
11440;BME280;5776;51.814;4.510;2024-01-11T07:27:33;103541.66;;;-1.43;100.00
11440;BME280;5776;51.814;4.510;2024-01-11T07:29:59;103538.44;;;-1.46;100.00
11440;BME280;5776;51.814;4.510;2024-01-11T07:32:25;103547.84;;;-1.42;100.00
11440;BME280;5776;51.814;4.510;2024-01-11T07:34:51;103541.09;;;-1.46;100.00
11440;BME280;5776;51.814;4.510;2024-01-11T07:37:17;103544.75;;;-1.47;100.00
11440;BME280;5776;51.814;4.510;2024-01-11T07:39:44;103544.16;;;-1.41;100.00
11440;BME280;5776;51.814;4.510;2024-01-11T07:42:09;103542.78;;;-1.45;100.00
11440;BME280;5776;51.814;4.510;2024-01-11T07:44:35;103540.25;;;-1.47;100.00
11440;BME280;5776;51.814;4.510;2024-01-11T07:47:01;103539.56;;;-1.49;100.00
11440;BME280;5776;51.814;4.510;2024-01-11T07:49:27;103538.44;;;-1.46;100.00
11440;BME280;5776;51.814;4.510;2024-01-11T07:51:53;103525.53;;;-1.51;100.00
11440;BME280;5776;51.814;4.510;2024-01-11T07:54:19;103526.22;;;-1.49;100.00
11440;BME280;5776;51.814;4.510;2024-01-11T07:56:45;103527.06;;;-1.48;100.00
11440;BME280;5776;51.814;4.510;2024-01-11T07:59:10;103528.06;;;-1.49;100.00
11440;BME280;5776;51.814;4.510;2024-01-11T08:01:42;103531.97;;;-1.44;100.00
11440;BME280;5776;51.814;4.510;2024-01-11T08:04:07;103530.59;;;-1.48;100.00
11440;BME280;5776;51.814;4.510;2024-01-11T08:06:33;103529.31;;;-1.44;100.00
11440;BME280;5776;51.814;4.510;2024-01-11T08:08:59;103533.09;;;-1.46;100.00
11440;BME280;5776;51.814;4.510;2024-01-11T08:11:27;103532.25;;;-1.47;100.00
11440;BME280;5776;51.814;4.510;2024-01-11T08:13:55;103526.34;;;-1.50;100.00
11440;BME280;5776;51.814;4.510;2024-01-11T08:16:21;103529.47;;;-1.55;100.00
11440;BME280;5776;51.814;4.510;2024-01-11T08:18:47;103537.72;;;-1.48;100.00
11440;BME280;5776;51.814;4.510;2024-01-11T08:21:15;103532.69;;;-1.42;100.00
11440;BME280;5776;51.814;4.510;2024-01-11T08:23:41;103529.59;;;-1.47;100.00
11440;BME280;5776;51.814;4.510;2024-01-11T08:26:13;103529.47;;;-1.45;100.00
11440;BME280;5776;51.814;4.510;2024-01-11T08:28:39;103526.34;;;-1.50;100.00
11440;BME280;5776;51.814;4.510;2024-01-11T08:31:06;103521.31;;;-1.44;100.00
11440;BME280;5776;51.814;4.510;2024-01-11T08:33:34;103532.97;;;-1.45;100.00
11440;BME280;5776;51.814;4.510;2024-01-11T08:36:04;103537.88;;;-1.40;100.00
11440;BME280;5776;51.814;4.510;2024-01-11T08:38:30;103537.00;;;-1.41;100.00
11440;BME280;5776;51.814;4.510;2024-01-11T08:40:56;103545.28;;;-1.34;100.00
11440;BME280;5776;51.814;4.510;2024-01-11T08:43:22;103539.97;;;-1.34;100.00
11440;BME280;5776;51.814;4.510;2024-01-11T08:45:47;103548.91;;;-1.25;100.00
11440;BME280;5776;51.814;4.510;2024-01-11T08:48:13;103541.50;;;-1.32;100.00
11440;BME280;5776;51.814;4.510;2024-01-11T08:50:40;103539.25;;;-1.36;100.00
11440;BME280;5776;51.814;4.510;2024-01-11T08:53:06;103536.75;;;-1.38;100.00
11440;BME280;5776;51.814;4.510;2024-01-11T08:55:33;103534.91;;;-1.37;100.00
11440;BME280;5776;51.814;4.510;2024-01-11T08:57:59;103541.91;;;-1.36;100.00
11440;BME280;5776;51.814;4.510;2024-01-11T09:00:25;103554.69;;;-1.30;100.00
11440;BME280;5776;51.814;4.510;2024-01-11T09:02:51;103555.38;;;-1.28;100.00
11440;BME280;5776;51.814;4.510;2024-01-11T09:05:17;103555.25;;;-1.26;100.00
11440;BME280;5776;51.814;4.510;2024-01-11T09:07:43;103556.38;;;-1.29;100.00
11440;BME280;5776;51.814;4.510;2024-01-11T09:10:09;103562.81;;;-1.22;100.00
11440;BME280;5776;51.814;4.510;2024-01-11T09:12:35;103556.66;;;-1.22;100.00
11440;BME280;5776;51.814;4.510;2024-01-11T09:15:02;103561.09;;;-1.13;100.00
11440;BME280;5776;51.814;4.510;2024-01-11T09:17:28;103559.31;;;-1.13;100.00
11440;BME280;5776;51.814;4.510;2024-01-11T09:19:54;103559.84;;;-1.19;100.00
11440;BME280;5776;51.814;4.510;2024-01-11T09:22:21;103566.19;;;-1.20;100.00
11440;BME280;5776;51.814;4.510;2024-01-11T09:24:47;103578.81;;;-1.12;100.00
11440;BME280;5776;51.814;4.510;2024-01-11T09:27:13;103580.75;;;-1.04;100.00
11440;BME280;5776;51.814;4.510;2024-01-11T09:29:43;103583.13;;;-1.01;100.00
11440;BME280;5776;51.814;4.510;2024-01-11T09:32:09;103585.81;;;-1.01;100.00
11440;BME280;5776;51.814;4.510;2024-01-11T09:34:35;103596.19;;;-0.98;100.00
11440;BME280;5776;51.814;4.510;2024-01-11T09:37:03;103604.88;;;-0.96;100.00
11440;BME280;5776;51.814;4.510;2024-01-11T09:39:29;103609.25;;;-0.95;100.00
11440;BME280;5776;51.814;4.510;2024-01-11T09:42:07;103612.88;;;-0.96;100.00
11440;BME280;5776;51.814;4.510;2024-01-11T09:44:38;103619.75;;;-0.94;100.00
11440;BME280;5776;51.814;4.510;2024-01-11T09:47:05;103624.81;;;-0.91;100.00
11440;BME280;5776;51.814;4.510;2024-01-11T09:49:33;103630.00;;;-0.89;100.00
11440;BME280;5776;51.814;4.510;2024-01-11T09:52:00;103624.53;;;-0.88;100.00
11440;BME280;5776;51.814;4.510;2024-01-11T09:54:27;103639.13;;;-0.82;100.00
11440;BME280;5776;51.814;4.510;2024-01-11T09:56:54;103639.25;;;-0.83;100.00
11440;BME280;5776;51.814;4.510;2024-01-11T09:59:21;103644.47;;;-0.82;100.00
11440;BME280;5776;51.814;4.510;2024-01-11T10:01:49;103650.22;;;-0.77;100.00
11440;BME280;5776;51.814;4.510;2024-01-11T10:04:16;103650.22;;;-0.77;100.00
11440;BME280;5776;51.814;4.510;2024-01-11T10:06:43;103658.22;;;-0.77;100.00
11440;BME280;5776;51.814;4.510;2024-01-11T10:09:09;103649.78;;;-0.72;100.00
11440;BME280;5776;51.814;4.510;2024-01-11T10:11:36;103641.34;;;-0.68;100.00
11440;BME280;5776;51.814;4.510;2024-01-11T10:14:02;103647.25;;;-0.64;100.00
11440;BME280;5776;51.814;4.510;2024-01-11T10:16:28;103647.91;;;-0.52;100.00
11440;BME280;5776;51.814;4.510;2024-01-11T10:18:54;103640.75;;;-0.52;100.00
11440;BME280;5776;51.814;4.510;2024-01-11T10:21:21;103643.81;;;-0.47;100.00
11440;BME280;5776;51.814;4.510;2024-01-11T10:23:49;103630.03;;;-0.42;100.00
11440;BME280;5776;51.814;4.510;2024-01-11T10:26:16;103639.28;;;-0.36;100.00
11440;BME280;5776;51.814;4.510;2024-01-11T10:28:46;103630.72;;;-0.40;100.00
11440;BME280;5776;51.814;4.510;2024-01-11T10:31:13;103638.13;;;-0.34;100.00
11440;BME280;5776;51.814;4.510;2024-01-11T10:33:40;103632.50;;;-0.31;100.00
11440;BME280;5776;51.814;4.510;2024-01-11T10:36:06;103639.28;;;-0.36;100.00
11440;BME280;5776;51.814;4.510;2024-01-11T10:38:38;103636.97;;;-0.22;100.00
11440;BME280;5776;51.814;4.510;2024-01-11T10:41:05;103641.44;;;-0.12;100.00
11440;BME280;5776;51.814;4.510;2024-01-11T10:43:36;103635.78;;;-0.09;100.00
11440;BME280;5776;51.814;4.510;2024-01-11T10:46:04;103631.81;;;-0.05;100.00
11440;BME280;5776;51.814;4.510;2024-01-11T10:48:35;103625.88;;;0.01;100.00
11440;BME280;5776;51.814;4.510;2024-01-11T10:51:05;103637.25;;;0.03;100.00
11440;BME280;5776;51.814;4.510;2024-01-11T10:53:44;103624.44;;;0.07;100.00
11440;BME280;5776;51.814;4.510;2024-01-11T10:56:15;103634.53;;;0.13;100.00
11440;BME280;5776;51.814;4.510;2024-01-11T10:58:44;103632.53;;;0.15;100.00
11440;BME280;5776;51.814;4.510;2024-01-11T11:01:11;103642.09;;;0.17;100.00
11440;BME280;5776;51.814;4.510;2024-01-11T11:03:38;103644.63;;;0.19;100.00
11440;BME280;5776;51.814;4.510;2024-01-11T11:06:06;103647.28;;;0.19;100.00
11440;BME280;5776;51.814;4.510;2024-01-11T11:08:33;103655.84;;;0.22;100.00
11440;BME280;5776;51.814;4.510;2024-01-11T11:11:01;103659.38;;;0.23;100.00
11440;BME280;5776;51.814;4.510;2024-01-11T11:13:35;103679.91;;;0.22;100.00
11440;BME280;5776;51.814;4.510;2024-01-11T11:16:01;103674.81;;;0.29;100.00
11440;BME280;5776;51.814;4.510;2024-01-11T11:18:29;103680.97;;;0.30;100.00
11440;BME280;5776;51.814;4.510;2024-01-11T11:20:57;103678.03;;;0.33;100.00
11440;BME280;5776;51.814;4.510;2024-01-11T11:23:23;103684.16;;;0.43;100.00
11440;BME280;5776;51.814;4.510;2024-01-11T11:25:49;103682.16;;;0.45;100.00
11440;BME280;5776;51.814;4.510;2024-01-11T11:28:17;103691.47;;;0.41;100.00
11440;BME280;5776;51.814;4.510;2024-01-11T11:30:45;103674.44;;;0.42;100.00
11440;BME280;5776;51.814;4.510;2024-01-11T11:33:18;103670.63;;;0.45;100.00
11440;BME280;5776;51.814;4.510;2024-01-11T11:35:48;103679.47;;;0.45;100.00
11440;BME280;5776;51.814;4.510;2024-01-11T11:38:22;103674.31;;;0.43;100.00
11440;BME280;5776;51.814;4.510;2024-01-11T11:40:51;103663.28;;;0.47;100.00
11440;BME280;5776;51.814;4.510;2024-01-11T11:43:17;103660.47;;;0.48;100.00
11440;BME280;5776;51.814;4.510;2024-01-11T11:45:45;103661.31;;;0.49;100.00
11440;BME280;5776;51.814;4.510;2024-01-11T11:51:18;103656.03;;;0.57;100.00
11440;BME280;5776;51.814;4.510;2024-01-11T11:53:45;103662.41;;;0.56;100.00
11440;BME280;5776;51.814;4.510;2024-01-11T11:56:12;103668.06;;;0.53;100.00
11440;BME280;5776;51.814;4.510;2024-01-11T11:58:40;103670.41;;;0.56;100.00
11440;BME280;5776;51.814;4.510;2024-01-11T12:01:06;103667.66;;;0.66;100.00
11440;BME280;5776;51.814;4.510;2024-01-11T12:03:33;103667.81;;;0.64;100.00
11440;BME280;5776;51.814;4.510;2024-01-11T12:06:03;103661.47;;;0.65;100.00
11440;BME280;5776;51.814;4.510;2024-01-11T12:08:30;103660.09;;;0.61;100.00
11440;BME280;5776;51.814;4.510;2024-01-11T12:10:57;103658.94;;;0.63;100.00
11440;BME280;5776;51.814;4.510;2024-01-11T12:13:24;103653.91;;;0.60;100.00
11440;BME280;5776;51.814;4.510;2024-01-11T12:15:49;103648.25;;;0.63;100.00
11440;BME280;5776;51.814;4.510;2024-01-11T12:18:16;103651.63;;;0.66;100.00
11440;BME280;5776;51.814;4.510;2024-01-11T12:20:42;103646.94;;;0.68;100.00
11440;BME280;5776;51.814;4.510;2024-01-11T12:23:08;103633.41;;;0.69;100.00
11440;BME280;5776;51.814;4.510;2024-01-11T12:25:34;103627.94;;;0.71;100.00
11440;BME280;5776;51.814;4.510;2024-01-11T12:28:00;103619.59;;;0.74;100.00
11440;BME280;5776;51.814;4.510;2024-01-11T12:30:27;103616.59;;;0.77;100.00
11440;BME280;5776;51.814;4.510;2024-01-11T12:32:54;103621.63;;;0.80;100.00
11440;BME280;5776;51.814;4.510;2024-01-11T12:35:20;103615.31;;;0.81;100.00
11440;BME280;5776;51.814;4.510;2024-01-11T12:37:59;103611.63;;;0.82;100.00
11440;BME280;5776;51.814;4.510;2024-01-11T12:40:25;103616.81;;;0.83;100.00
11440;BME280;5776;51.814;4.510;2024-01-11T12:42:52;103608.78;;;0.83;100.00
11440;BME280;5776;51.814;4.510;2024-01-11T12:45:19;103603.97;;;0.87;100.00
11440;BME280;5776;51.814;4.510;2024-01-11T12:47:46;103602.97;;;0.88;100.00
11440;BME280;5776;51.814;4.510;2024-01-11T12:50:12;103608.03;;;0.91;100.00
11440;BME280;5776;51.814;4.510;2024-01-11T12:52:38;103592.66;;;0.93;100.00